Time;durP1;ratioP1;P1;durP2;ratioP2;P2;SDS_P1;SDS_P2;PMS_P1;PMS_P2;Temp;Humidity;BMP_temperature;BMP_pressure;BME280_temperature;BME280_humidity;BME280_pressure;Samples;Min_cycle;Max_cycle;Signal;HPM_P1;HPM_P2
2022/04/04 00:04:15;;;;;;;12.20;8.88;;;;;;;0.93;52.39;100291.44;10292678;28;20452;-83
2022/04/04 00:09:17;;;;;;;10.00;8.50;;;;;;;0.83;52.52;100282.97;10291088;28;20137;-83
2022/04/04 00:14:19;;;;;;;11.43;8.15;;;;;;;0.88;52.99;100283.78;10293989;28;20058;-83
2022/04/04 00:19:22;;;;;;;10.02;8.48;;;;;;;0.87;52.69;100276.91;10271227;28;20774;-83
2022/04/04 00:24:24;;;;;;;10.40;8.45;;;;;;;0.82;52.48;100273.56;10293472;28;20055;-83
2022/04/04 00:29:26;;;;;;;9.68;7.88;;;;;;;0.81;52.58;100266.69;10275576;28;20046;-83
2022/04/04 00:34:28;;;;;;;11.50;8.13;;;;;;;0.85;52.61;100257.22;10293885;28;20113;-83
2022/04/04 00:39:29;;;;;;;13.90;8.68;;;;;;;0.86;52.57;100248.63;10275357;28;20156;-83
2022/04/04 00:44:31;;;;;;;10.00;8.15;;;;;;;0.87;52.58;100251.16;10291917;28;20185;-83
2022/04/04 00:49:33;;;;;;;10.40;8.15;;;;;;;0.88;52.59;100242.56;10290587;28;20142;-83
2022/04/04 00:54:34;;;;;;;12.43;8.32;;;;;;;0.90;52.48;100253.69;10293240;28;20090;-83
2022/04/04 00:59:37;;;;;;;11.32;8.25;;;;;;;0.86;52.39;100244.31;10275752;28;20528;-83
2022/04/04 01:04:39;;;;;;;10.45;7.82;;;;;;;0.86;52.34;100239.19;10281273;28;20568;-83
2022/04/04 01:09:40;;;;;;;13.05;8.50;;;;;;;0.91;52.14;100239.94;10290306;28;20574;-82
2022/04/04 01:14:47;;;;;;;9.63;8.40;;;;;;;0.90;51.94;100235.69;10290031;28;20070;-82
2022/04/04 01:19:49;;;;;;;10.50;8.35;;;;;;;0.85;52.37;100234.88;10290959;28;20055;-82
2022/04/04 01:24:51;;;;;;;10.25;8.20;;;;;;;0.84;52.25;100219.47;10298671;28;20050;-82
2022/04/04 01:29:53;;;;;;;10.57;8.45;;;;;;;0.90;52.32;100221.94;10297983;28;20105;-82
2022/04/04 01:34:55;;;;;;;9.48;8.30;;;;;;;0.98;51.98;100210.66;10296623;28;20055;-82
2022/04/04 01:39:56;;;;;;;9.32;8.32;;;;;;;1.03;52.10;100208.88;10299017;28;20062;-82
2022/04/04 01:44:58;;;;;;;12.88;8.48;;;;;;;1.12;52.23;100203.53;10290712;28;20081;-82
2022/04/04 01:50:00;;;;;;;9.45;7.95;;;;;;;1.08;52.18;100198.47;10280697;28;21206;-82
2022/04/04 01:55:02;;;;;;;10.25;8.48;;;;;;;0.89;52.43;100194.53;10299043;28;20083;-82
2022/04/04 02:00:05;;;;;;;9.80;8.52;;;;;;;0.75;52.57;100194.72;10293339;28;20089;-82
2022/04/04 02:05:07;;;;;;;14.02;8.70;;;;;;;0.72;52.50;100186.19;10301605;28;20055;-82
2022/04/04 02:10:08;;;;;;;10.25;8.45;;;;;;;0.68;52.59;100181.97;10302940;28;20050;-82
2022/04/04 02:15:10;;;;;;;11.13;8.82;;;;;;;0.75;52.67;100173.31;10302561;28;20047;-82
2022/04/04 02:20:12;;;;;;;10.88;9.02;;;;;;;0.83;52.63;100177.44;10300973;28;20063;-82
2022/04/04 02:25:14;;;;;;;11.32;8.98;;;;;;;0.89;52.36;100171.34;10299521;28;20050;-82
2022/04/04 02:30:16;;;;;;;10.35;8.70;;;;;;;0.73;52.54;100163.00;10300801;28;20226;-82
2022/04/04 02:35:19;;;;;;;11.23;8.98;;;;;;;0.71;52.77;100157.03;10300488;28;20128;-82
2022/04/04 02:40:21;;;;;;;10.00;8.32;;;;;;;0.73;52.91;100164.75;10283299;28;20463;-82
2022/04/04 02:45:23;;;;;;;12.52;9.38;;;;;;;0.64;52.86;100160.59;10300975;28;20058;-81
2022/04/04 02:50:26;;;;;;;12.82;9.30;;;;;;;0.50;52.95;100147.94;10299484;28;20113;-81
2022/04/04 03:00:49;;;;;;;11.23;9.30;;;;;;;0.15;53.68;100145.06;10300577;28;20086;-81
2022/04/04 03:06:08;;;;;;;11.18;9.10;;;;;;;0.16;53.68;100141.59;10282474;28;20055;-81
2022/04/04 03:11:10;;;;;;;10.98;9.18;;;;;;;0.25;53.66;100130.34;10293155;28;20050;-81
2022/04/04 03:16:12;;;;;;;13.52;9.52;;;;;;;0.39;53.44;100128.41;10293706;28;20141;-82
2022/04/04 03:21:14;;;;;;;11.65;8.88;;;;;;;0.45;53.38;100128.31;10295178;28;20051;-82
2022/04/04 03:26:16;;;;;;;13.55;9.60;;;;;;;0.43;53.34;100117.19;10296750;28;20105;-82
2022/04/04 03:31:18;;;;;;;10.27;9.00;;;;;;;0.49;53.14;100109.38;10292859;28;20481;-82
2022/04/04 03:36:21;;;;;;;11.18;9.40;;;;;;;0.50;53.25;100105.94;10294734;28;20046;-82
2022/04/04 03:41:23;;;;;;;11.52;8.70;;;;;;;0.49;53.22;100099.94;10295244;28;20140;-82
2022/04/04 03:46:25;;;;;;;12.32;9.15;;;;;;;0.46;53.30;100094.81;10269156;28;20050;-82
2022/04/04 03:51:27;;;;;;;10.15;8.95;;;;;;;0.42;53.37;100082.06;10287968;28;20057;-82
2022/04/04 03:56:29;;;;;;;11.20;9.30;;;;;;;0.38;53.19;100080.41;10291424;28;20117;-82
2022/04/04 04:01:30;;;;;;;9.98;8.95;;;;;;;0.28;53.44;100084.00;10293465;28;20089;-82
2022/04/04 04:06:33;;;;;;;10.32;8.63;;;;;;;0.18;53.64;100077.31;10290057;28;20058;-82
2022/04/04 04:11:35;;;;;;;9.88;8.80;;;;;;;0.15;53.65;100070.47;10286679;28;20527;-82
2022/04/04 04:17:18;;;;;;;14.02;9.77;;;;;;;0.03;54.29;100072.38;10289818;28;20152;-82
2022/04/04 04:22:21;;;;;;;12.50;9.85;;;;;;;0.06;53.81;100072.31;10285197;28;20054;-82
2022/04/04 04:27:23;;;;;;;10.70;9.15;;;;;;;0.04;53.90;100056.94;10288261;28;20105;-82
2022/04/04 04:32:25;;;;;;;13.15;9.35;;;;;;;0.03;54.02;100055.25;10290533;28;20059;-82
2022/04/04 04:37:27;;;;;;;10.98;9.73;;;;;;;0.01;54.15;100056.13;10274833;28;20181;-82
2022/04/04 04:42:29;;;;;;;11.40;9.70;;;;;;;0.01;54.24;100054.41;10284173;28;20083;-82
2022/04/04 04:47:32;;;;;;;10.43;9.30;;;;;;;-0.01;54.29;100048.44;10283000;28;20110;-82
2022/04/04 04:52:35;;;;;;;11.93;9.32;;;;;;;0.01;54.63;100040.72;10291040;28;20428;-82
2022/04/04 04:57:37;;;;;;;9.95;8.95;;;;;;;-0.01;54.55;100034.75;10291418;28;20055;-82
2022/04/04 05:02:39;;;;;;;10.57;9.27;;;;;;;-0.03;54.41;100018.50;10289301;28;20078;-82
2022/04/04 05:07:41;;;;;;;13.93;9.38;;;;;;;0.04;54.49;100020.94;10291851;28;20066;-82
2022/04/04 05:12:42;;;;;;;11.25;9.05;;;;;;;0.18;54.33;100018.16;10291363;28;20102;-82
2022/04/04 05:17:44;;;;;;;11.57;9.73;;;;;;;0.19;54.07;100009.56;10287865;28;20059;-82
2022/04/04 05:22:47;;;;;;;12.55;9.55;;;;;;;0.19;54.29;100014.69;10292582;28;20468;-82
2022/04/04 05:27:50;;;;;;;10.30;9.15;;;;;;;0.30;54.27;100015.38;10290954;28;20464;-82
2022/04/04 05:32:53;;;;;;;11.15;9.73;;;;;;;0.40;54.10;100010.03;10292459;28;20042;-82
2022/04/04 05:37:56;;;;;;;12.23;9.73;;;;;;;0.46;54.09;100011.66;10288750;28;20145;-82
2022/04/04 05:42:57;;;;;;;12.48;9.13;;;;;;;0.60;53.74;100003.69;10291950;28;20477;-82
2022/04/04 05:47:59;;;;;;;10.27;9.15;;;;;;;0.68;53.81;99997.53;10288349;28;20626;-82
2022/04/04 05:53:01;;;;;;;13.07;9.95;;;;;;;0.81;53.34;99998.97;10289871;28;20101;-82
2022/04/04 05:58:03;;;;;;;13.68;10.07;;;;;;;0.92;53.15;99994.47;10271145;28;20117;-82
2022/04/04 06:03:06;;;;;;;17.25;10.18;;;;;;;1.07;52.90;99985.59;10265364;28;20054;-74
2022/04/04 06:08:08;;;;;;;12.63;9.65;;;;;;;1.16;52.69;99990.53;10267247;28;20050;-74
2022/04/04 06:13:09;;;;;;;13.52;10.68;;;;;;;1.53;52.02;99991.47;10277685;28;20054;-74
2022/04/04 06:18:13;;;;;;;11.60;10.05;;;;;;;1.60;51.97;99989.59;10271472;28;20050;-74
2022/04/04 06:23:14;;;;;;;11.32;10.07;;;;;;;1.76;51.58;99978.06;10269631;28;20043;-74
2022/04/04 06:28:16;;;;;;;11.75;9.95;;;;;;;2.00;51.21;99980.03;10269321;28;20137;-74
2022/04/04 06:33:19;;;;;;;11.75;9.57;;;;;;;2.25;50.66;99975.97;10271417;28;20086;-74
2022/04/04 06:38:21;;;;;;;10.98;9.77;;;;;;;2.43;50.25;99967.75;10290559;28;20634;-74
2022/04/04 06:43:23;;;;;;;11.35;9.68;;;;;;;2.62;50.03;99968.94;10270620;28;20113;-74
2022/04/04 06:48:25;;;;;;;11.88;9.60;;;;;;;2.76;49.80;99958.25;10280239;28;20473;-74
2022/04/04 06:53:27;;;;;;;15.00;9.70;;;;;;;2.75;49.68;99957.41;10287682;28;20138;-74
2022/04/04 06:58:29;;;;;;;11.80;9.02;;;;;;;2.79;49.48;99946.09;10290383;28;20050;-74
2022/04/04 07:03:31;;;;;;;15.23;9.50;;;;;;;2.88;49.17;99937.25;10269517;28;20062;-74
2022/04/04 07:08:33;;;;;;;10.48;9.38;;;;;;;3.05;48.95;99937.59;10269353;28;20812;-74
2022/04/04 07:13:35;;;;;;;13.82;9.50;;;;;;;3.16;48.69;99921.78;10269299;28;20452;-74
2022/04/04 07:18:37;;;;;;;9.68;8.68;;;;;;;3.43;48.26;99921.81;10268242;28;20137;-74
2022/04/04 07:23:38;;;;;;;9.80;8.80;;;;;;;3.93;47.52;99921.94;10251415;28;20098;-74
2022/04/04 07:28:42;;;;;;;9.43;8.07;;;;;;;4.24;47.06;99918.31;10269320;28;20055;-74
2022/04/04 07:33:44;;;;;;;10.30;7.88;;;;;;;4.35;46.03;99900.63;10268669;28;20900;-74
2022/04/04 07:38:46;;;;;;;10.25;7.70;;;;;;;4.22;46.16;99899.38;10271611;28;20069;-74
2022/04/04 07:43:48;;;;;;;10.75;7.07;;;;;;;4.35;45.69;99889.47;10288119;28;20050;-74
2022/04/04 07:48:54;;;;;;;8.40;6.40;;;;;;;4.95;44.39;99876.00;10267475;28;20552;-74
2022/04/04 07:53:56;;;;;;;9.15;6.35;;;;;;;4.95;44.28;99861.31;10286636;28;20050;-74
2022/04/04 07:58:57;;;;;;;8.20;5.80;;;;;;;5.64;43.24;99864.63;10286529;28;20153;-74
2022/04/04 08:03:59;;;;;;;8.43;5.70;;;;;;;6.00;42.32;99852.72;10250290;28;20058;-74
2022/04/04 08:09:01;;;;;;;8.68;5.70;;;;;;;6.65;41.45;99829.94;10266877;28;20109;-74
2022/04/04 08:14:04;;;;;;;10.45;5.22;;;;;;;6.77;40.79;99836.34;10262455;28;21181;-74
2022/04/04 08:19:06;;;;;;;6.25;4.80;;;;;;;7.08;40.23;99818.41;10264296;28;20144;-74
2022/04/04 08:24:08;;;;;;;7.25;4.78;;;;;;;6.43;39.90;99821.41;10264688;28;20055;-74
2022/04/04 08:29:10;;;;;;;6.18;4.22;;;;;;;6.37;40.15;99816.47;10263598;28;20055;-74
2022/04/04 08:34:12;;;;;;;7.72;4.43;;;;;;;6.18;39.64;99808.66;10261670;28;20624;-74
2022/04/04 08:39:14;;;;;;;7.18;4.57;;;;;;;6.51;39.46;99808.91;10265074;28;20092;-74
2022/04/04 08:44:16;;;;;;;6.43;3.85;;;;;;;6.34;39.16;99786.31;10263858;28;20047;-75
2022/04/04 08:49:19;;;;;;;5.82;3.88;;;;;;;6.50;38.99;99796.84;10266478;28;20112;-74
2022/04/04 08:54:21;;;;;;;7.22;4.13;;;;;;;6.38;39.43;99787.00;10276119;28;20051;-74
2022/04/04 08:59:22;;;;;;;6.63;4.03;;;;;;;5.66;39.10;99785.81;10264298;28;20232;-75
2022/04/04 09:04:24;;;;;;;8.60;4.20;;;;;;;5.66;39.45;99774.59;10263536;28;20086;-74
2022/04/04 09:09:50;;;;;;;6.68;3.97;;;;;;;5.97;38.54;99762.84;10267618;28;20058;-74
2022/04/04 09:14:56;;;;;;;4.88;4.10;;;;;;;6.53;38.95;99749.13;10270755;28;20054;-74
2022/04/04 09:19:58;;;;;;;7.18;4.32;;;;;;;6.58;37.85;99740.19;10298308;28;20444;-74
2022/04/04 09:25:02;;;;;;;7.07;4.13;;;;;;;6.73;37.47;99729.09;10301532;28;20476;-74
2022/04/04 09:30:07;;;;;;;7.00;4.20;;;;;;;7.03;37.05;99716.34;10281243;28;20521;-74
2022/04/04 09:35:14;;;;;;;10.48;4.68;;;;;;;7.37;36.74;99712.94;10300640;28;20120;-75
2022/04/04 09:40:24;;;;;;;7.10;4.57;;;;;;;7.84;36.10;99690.53;10302109;28;20066;-75
2022/04/04 09:45:31;;;;;;;7.37;4.43;;;;;;;8.07;35.23;99694.53;10306671;28;20054;-75
2022/04/04 09:50:46;;;;;;;6.68;4.15;;;;;;;8.06;33.96;99665.03;10302698;28;20059;-75
2022/04/04 09:56:00;;;;;;;6.97;4.13;;;;;;;8.39;33.88;99652.81;10308011;28;20050;-75
2022/04/04 10:01:03;;;;;;;9.00;4.38;;;;;;;8.19;34.66;99652.22;10308689;28;20093;-75
2022/04/04 10:06:07;;;;;;;5.93;3.95;;;;;;;7.63;35.01;99640.41;10307526;28;20385;-75
2022/04/04 10:11:10;;;;;;;6.47;4.18;;;;;;;7.31;35.61;99620.44;10309779;28;20656;-76
2022/04/04 10:16:12;;;;;;;8.18;4.30;;;;;;;7.54;35.75;99603.63;10286664;28;20056;-75
2022/04/04 10:21:14;;;;;;;6.65;4.20;;;;;;;8.23;35.02;99589.44;10307057;28;20431;-76
2022/04/04 10:26:20;;;;;;;5.50;4.20;;;;;;;8.87;34.10;99570.16;10309028;28;20073;-76
2022/04/04 10:31:23;;;;;;;6.55;4.20;;;;;;;8.75;33.75;99569.91;10307692;28;20137;-75
2022/04/04 10:36:25;;;;;;;7.60;4.22;;;;;;;8.79;33.98;99561.00;10309068;28;20123;-76
2022/04/04 10:41:30;;;;;;;6.53;4.40;;;;;;;9.14;33.87;99556.31;10291471;28;20512;-76
2022/04/04 10:46:32;;;;;;;8.82;4.20;;;;;;;8.96;33.72;99540.91;10308705;28;20082;-76
2022/04/04 10:51:39;;;;;;;9.80;4.30;;;;;;;9.22;33.35;99535.00;10306447;28;20058;-76
2022/04/04 10:56:45;;;;;;;8.32;4.65;;;;;;;9.61;32.53;99506.44;10305938;28;20057;-75
2022/04/04 11:01:58;;;;;;;6.38;4.40;;;;;;;9.76;32.52;99489.84;10306764;28;20145;-75
2022/04/04 11:12:56;;;;;;;6.57;4.22;;;;;;;9.56;32.98;99490.22;10307342;28;20169;-75
2022/04/04 11:18:00;;;;;;;7.53;4.18;;;;;;;9.76;33.24;99471.56;10305713;28;20046;-76
2022/04/04 11:23:08;;;;;;;6.57;4.03;;;;;;;9.68;32.91;99471.22;10305863;28;20112;-76
2022/04/04 11:28:11;;;;;;;7.90;4.28;;;;;;;9.67;32.96;99453.03;10305883;28;20096;-76
2022/04/04 11:33:22;;;;;;;6.45;4.20;;;;;;;9.74;33.20;99463.00;10287839;28;20089;-75
2022/04/04 11:38:25;;;;;;;6.97;4.45;;;;;;;9.32;33.54;99452.59;10304814;28;20042;-76
2022/04/04 11:43:31;;;;;;;6.10;4.22;;;;;;;9.06;33.86;99454.19;10305096;28;20465;-76
2022/04/04 11:48:39;;;;;;;6.85;4.82;;;;;;;8.74;34.51;99440.50;10303691;28;20149;-75
2022/04/04 11:53:43;;;;;;;7.85;4.40;;;;;;;8.94;34.72;99422.81;10304167;28;20054;-76
2022/04/04 11:58:54;;;;;;;7.60;4.60;;;;;;;9.01;34.47;99439.75;10304268;28;20082;-75
2022/04/04 12:03:56;;;;;;;10.90;4.13;;;;;;;8.92;34.70;99429.88;10304589;28;20050;-76
2022/04/04 12:09:03;;;;;;;8.18;4.03;;;;;;;8.99;35.23;99421.63;10303854;28;20057;-75
2022/04/04 12:14:11;;;;;;;6.65;4.00;;;;;;;8.65;35.63;99428.00;10304302;28;20587;-75
2022/04/04 12:19:13;;;;;;;7.30;4.43;;;;;;;8.56;36.26;99430.34;10303623;28;20603;-77
2022/04/04 12:30:01;;;;;;;6.95;4.40;;;;;;;8.55;36.80;99399.97;10228421;28;20105;-76
2022/04/04 12:35:06;;;;;;;7.35;4.53;;;;;;;8.68;36.05;99406.13;10285424;28;20110;-76
2022/04/04 12:40:25;;;;;;;6.53;4.45;;;;;;;8.97;35.91;99410.44;10288053;28;21080;-76
2022/04/04 12:45:31;;;;;;;8.45;4.15;;;;;;;8.82;36.66;99403.53;10303767;28;20128;-76
2022/04/04 12:50:42;;;;;;;6.43;4.18;;;;;;;8.72;36.93;99397.19;10303579;28;20054;-76
2022/04/04 12:56:08;;;;;;;5.40;4.53;;;;;;;8.37;37.88;99406.28;10302844;28;20054;-76
2022/04/04 13:01:18;;;;;;;7.95;4.47;;;;;;;8.08;38.68;99383.69;10300208;28;20144;-75
2022/04/04 13:06:20;;;;;;;9.60;4.50;;;;;;;7.93;41.02;99375.84;10301911;28;20054;-75
2022/04/04 13:11:24;;;;;;;5.85;4.78;;;;;;;7.80;41.99;99380.06;10301724;28;20050;-75
2022/04/04 13:16:37;;;;;;;7.63;4.57;;;;;;;7.98;43.19;99371.19;10301813;28;20050;-74
2022/04/04 13:21:41;;;;;;;5.72;4.85;;;;;;;7.71;43.69;99377.16;10304837;28;20567;-76
2022/04/04 13:26:48;;;;;;;9.85;4.95;;;;;;;7.23;45.74;99388.50;10293959;28;20058;-75
2022/04/04 13:31:50;;;;;;;8.48;5.20;;;;;;;7.25;47.25;99378.03;10307887;28;20058;-76
2022/04/04 13:36:51;;;;;;;7.25;4.93;;;;;;;7.23;47.94;99372.91;10287396;28;20057;-75
2022/04/04 13:41:53;;;;;;;6.43;5.20;;;;;;;7.23;48.57;99370.31;10308653;28;20062;-75
2022/04/04 13:46:55;;;;;;;7.05;5.30;;;;;;;7.02;49.01;99374.09;10308373;28;20100;-75
2022/04/04 13:51:57;;;;;;;8.00;5.20;;;;;;;7.01;49.67;99360.25;10309977;28;20058;-75
2022/04/04 13:56:59;;;;;;;7.25;5.38;;;;;;;6.77;51.15;99358.13;10310543;28;20047;-75
2022/04/04 14:02:02;;;;;;;10.63;5.88;;;;;;;6.37;52.12;99345.56;10309121;28;20227;-75
2022/04/04 14:07:05;;;;;;;7.50;5.82;;;;;;;6.76;51.37;99351.25;10308975;28;20067;-73
2022/04/04 14:12:08;;;;;;;8.38;6.03;;;;;;;6.73;51.53;99341.88;10308226;28;20089;-73
2022/04/04 14:17:10;;;;;;;8.73;5.85;;;;;;;6.80;51.63;99337.16;10302977;28;20152;-74
2022/04/04 14:22:13;;;;;;;9.25;5.80;;;;;;;6.70;52.52;99325.59;10307400;28;20137;-74
2022/04/04 14:27:15;;;;;;;7.65;5.75;;;;;;;6.75;52.45;99318.41;10308427;28;20086;-74
2022/04/04 14:32:18;;;;;;;9.45;6.35;;;;;;;6.93;52.33;99312.19;10301340;28;20487;-74
2022/04/04 14:37:19;;;;;;;9.77;6.32;;;;;;;6.44;54.40;99307.94;10306803;28;20137;-74
2022/04/04 14:42:21;;;;;;;10.20;6.35;;;;;;;6.82;53.16;99314.53;10305439;28;20421;-74
2022/04/04 14:47:23;;;;;;;10.65;7.15;;;;;;;6.76;54.12;99294.06;10304992;28;20145;-74
2022/04/04 14:52:30;;;;;;;8.70;7.10;;;;;;;6.53;54.49;99291.88;10289491;28;20054;-74
2022/04/04 14:57:32;;;;;;;9.35;7.80;;;;;;;6.45;54.94;99288.88;10307397;28;20496;-74
2022/04/04 15:02:36;;;;;;;9.38;7.72;;;;;;;6.06;56.14;99302.94;10287679;28;20062;-74
2022/04/04 15:07:59;;;;;;;10.43;8.15;;;;;;;6.05;56.16;99285.72;10305348;28;20728;-74
2022/04/04 15:13:01;;;;;;;11.27;8.00;;;;;;;6.20;55.91;99277.13;10285816;28;20082;-74
2022/04/04 15:18:03;;;;;;;10.70;8.52;;;;;;;5.95;57.05;99274.13;10305355;28;20148;-75
2022/04/04 15:23:11;;;;;;;11.05;8.35;;;;;;;6.06;56.76;99263.19;10299844;28;20120;-77
2022/04/04 15:28:14;;;;;;;9.90;8.27;;;;;;;6.28;55.92;99262.03;10301514;28;20050;-76
2022/04/04 15:33:17;;;;;;;8.95;8.05;;;;;;;6.32;56.31;99258.34;10301617;28;20061;-76
2022/04/04 15:38:18;;;;;;;10.35;8.85;;;;;;;6.24;56.65;99254.44;10299285;28;20468;-76
2022/04/04 15:43:21;;;;;;;12.35;9.05;;;;;;;6.28;56.64;99251.63;10298704;28;20449;-76
2022/04/04 15:48:23;;;;;;;10.98;7.70;;;;;;;6.16;56.90;99262.63;10300937;28;20495;-76
2022/04/04 15:53:26;;;;;;;13.75;8.25;;;;;;;6.03;57.34;99250.38;10303109;28;20054;-76
2022/04/04 15:58:28;;;;;;;8.80;6.88;;;;;;;5.98;57.27;99253.19;10285332;28;20117;-76
2022/04/04 16:03:32;;;;;;;11.60;7.05;;;;;;;5.86;57.47;99250.41;10300081;28;20144;-77
2022/04/04 16:08:34;;;;;;;8.10;6.28;;;;;;;5.42;58.51;99258.66;10299096;28;20132;-76
2022/04/04 16:13:36;;;;;;;9.68;6.40;;;;;;;5.56;58.59;99252.78;10302645;28;20102;-76
2022/04/04 16:18:39;;;;;;;9.55;6.80;;;;;;;5.69;57.66;99243.47;10285865;28;20050;-76
2022/04/04 16:23:43;;;;;;;8.20;6.68;;;;;;;5.57;58.44;99249.28;10302020;28;20582;-76
2022/04/04 16:28:47;;;;;;;9.93;6.65;;;;;;;5.23;59.91;99238.88;10284844;28;20070;-76
2022/04/04 16:33:49;;;;;;;8.48;6.78;;;;;;;5.33;59.49;99243.56;10283775;28;20058;-76
2022/04/04 16:38:51;;;;;;;8.43;7.18;;;;;;;5.04;60.86;99244.16;10280662;28;20934;-76
2022/04/04 16:43:53;;;;;;;10.10;7.60;;;;;;;5.11;60.67;99244.66;10301102;28;20057;-76
2022/04/04 16:48:55;;;;;;;9.40;7.90;;;;;;;5.14;60.97;99241.94;10282246;28;20065;-76
2022/04/04 16:54:03;;;;;;;9.63;7.40;;;;;;;4.70;62.67;99241.47;10296235;28;20685;-76
2022/04/04 16:59:05;;;;;;;9.23;8.00;;;;;;;4.41;63.86;99244.56;10293488;28;20050;-76
2022/04/04 17:04:07;;;;;;;10.20;8.20;;;;;;;4.39;63.66;99236.84;10300623;28;20066;-76
2022/04/04 17:09:12;;;;;;;11.20;8.40;;;;;;;4.46;63.23;99224.47;10298014;28;20155;-77
2022/04/04 17:14:14;;;;;;;11.40;9.20;;;;;;;4.40;63.43;99227.34;10281398;28;20136;-76
2022/04/04 17:19:16;;;;;;;12.02;9.13;;;;;;;4.37;63.74;99217.16;10283084;28;20090;-77
2022/04/04 17:24:19;;;;;;;13.70;9.20;;;;;;;4.32;64.43;99209.59;10293496;28;20097;-76
2022/04/04 17:29:22;;;;;;;10.48;8.50;;;;;;;4.19;64.53;99208.44;10296107;28;20744;-76
2022/04/04 17:34:24;;;;;;;10.15;8.55;;;;;;;4.25;64.37;99200.41;10296559;28;20058;-76
2022/04/04 17:39:27;;;;;;;11.35;9.70;;;;;;;4.25;64.46;99197.00;10298987;28;20448;-76
2022/04/04 17:44:29;;;;;;;11.73;9.38;;;;;;;4.30;64.23;99190.69;10294331;28;20089;-77
2022/04/04 17:49:31;;;;;;;15.30;10.90;;;;;;;4.20;64.72;99189.44;10279173;28;20177;-77
2022/04/04 17:54:34;;;;;;;14.05;11.23;;;;;;;4.08;65.25;99182.25;10298326;28;20046;-78
2022/04/04 17:59:36;;;;;;;14.52;10.90;;;;;;;4.14;64.71;99192.31;10300282;28;20440;-74
2022/04/04 18:04:41;;;;;;;14.40;10.93;;;;;;;4.10;65.08;99177.84;10305019;28;20559;-74
2022/04/04 18:09:42;;;;;;;12.75;10.80;;;;;;;4.08;65.31;99182.25;10307969;28;20200;-74
2022/04/04 18:14:44;;;;;;;12.60;10.85;;;;;;;4.07;65.42;99171.97;10306563;28;20476;-74
2022/04/04 18:19:46;;;;;;;12.20;10.50;;;;;;;3.88;66.58;99182.31;10304703;28;20136;-74
2022/04/04 18:24:48;;;;;;;15.35;10.93;;;;;;;3.93;66.04;99169.97;10308274;28;20085;-74
2022/04/04 18:29:49;;;;;;;12.48;10.88;;;;;;;4.01;65.93;99178.25;10308183;28;20846;-74
2022/04/04 18:34:51;;;;;;;11.40;10.18;;;;;;;4.01;65.73;99180.81;10309265;28;20128;-74
2022/04/04 18:39:53;;;;;;;13.27;11.55;;;;;;;4.08;65.50;99182.25;10308969;28;20141;-74
2022/04/04 18:44:55;;;;;;;17.08;10.65;;;;;;;4.12;65.56;99177.75;10292315;28;20677;-74
2022/04/04 18:49:57;;;;;;;15.18;10.30;;;;;;;4.09;65.92;99188.25;10308372;28;20516;-74
2022/04/04 18:54:59;;;;;;;12.75;10.65;;;;;;;4.09;66.30;99185.69;10291864;28;20054;-74
2022/04/04 19:00:00;;;;;;;12.63;9.73;;;;;;;3.97;66.93;99176.69;10308885;28;20057;-74
2022/04/04 19:05:02;;;;;;;13.05;10.40;;;;;;;4.04;67.06;99175.53;10309462;28;20081;-74
2022/04/04 19:10:04;;;;;;;12.32;10.55;;;;;;;4.04;66.93;99169.50;10307553;28;20090;-74
2022/04/04 19:15:07;;;;;;;15.70;12.52;;;;;;;4.10;66.92;99164.06;10307712;28;20148;-74
2022/04/04 19:20:09;;;;;;;13.07;10.75;;;;;;;3.92;68.71;99168.31;10308274;28;20133;-74
2022/04/04 19:25:11;;;;;;;12.23;10.40;;;;;;;3.98;68.26;99167.19;10307609;28;20118;-74
2022/04/04 19:30:15;;;;;;;11.52;10.13;;;;;;;3.95;68.70;99157.81;10306840;28;20054;-74
2022/04/04 19:35:18;;;;;;;13.00;9.82;;;;;;;4.03;68.54;99149.72;10306668;28;20492;-74
2022/04/04 19:40:20;;;;;;;12.27;10.05;;;;;;;4.06;68.50;99145.25;10290372;28;20500;-74
2022/04/04 19:45:22;;;;;;;10.38;9.02;;;;;;;4.15;68.07;99134.47;10304498;28;20058;-74
2022/04/04 19:50:26;;;;;;;10.82;8.85;;;;;;;4.03;68.67;99135.03;10307897;28;20459;-74
2022/04/04 19:55:28;;;;;;;9.32;7.70;;;;;;;4.15;67.91;99126.69;10289753;28;20054;-74
2022/04/04 20:00:29;;;;;;;11.23;8.02;;;;;;;4.19;67.86;99128.22;10307194;28;20050;-74
2022/04/04 20:05:31;;;;;;;9.60;7.65;;;;;;;4.29;67.37;99123.47;10304528;28;20066;-74
2022/04/04 20:10:33;;;;;;;10.13;7.88;;;;;;;4.36;67.08;99122.25;10305884;28;20169;-74
2022/04/04 20:15:35;;;;;;;8.38;7.20;;;;;;;4.26;67.42;99119.28;10305891;28;20667;-74
2022/04/04 20:20:37;;;;;;;9.15;7.07;;;;;;;4.39;66.94;99099.66;10304894;28;20097;-74
2022/04/04 20:25:39;;;;;;;8.30;6.65;;;;;;;4.35;66.81;99107.66;10304604;28;20065;-74
2022/04/04 20:30:41;;;;;;;8.98;6.97;;;;;;;4.50;66.16;99088.78;10288222;28;20065;-74
2022/04/04 20:35:43;;;;;;;9.50;6.45;;;;;;;4.52;65.91;99089.56;10305015;28;20137;-74
2022/04/04 20:40:46;;;;;;;7.93;6.20;;;;;;;4.56;65.62;99078.97;10304899;28;20432;-74
2022/04/04 20:45:48;;;;;;;7.32;6.50;;;;;;;4.63;65.50;99061.41;10305922;28;20129;-74
2022/04/04 20:50:50;;;;;;;10.73;7.18;;;;;;;4.61;65.64;99071.00;10306186;28;20136;-74
2022/04/04 20:55:52;;;;;;;9.00;6.60;;;;;;;4.46;66.51;99080.34;10303958;28;20132;-74
2022/04/04 21:00:54;;;;;;;9.23;6.50;;;;;;;4.31;67.13;99068.13;10302746;28;20165;-74
2022/04/04 21:05:56;;;;;;;8.52;6.80;;;;;;;4.51;66.46;99080.97;10305259;28;20161;-74
2022/04/04 21:10:58;;;;;;;10.77;7.28;;;;;;;4.48;66.77;99080.25;10303873;28;20101;-74
2022/04/04 21:16:00;;;;;;;9.55;6.85;;;;;;;4.48;66.57;99086.28;10288192;28;20046;-74
2022/04/04 21:21:02;;;;;;;9.00;7.50;;;;;;;4.49;66.97;99072.44;10304307;28;20053;-74
2022/04/04 21:26:04;;;;;;;8.25;6.72;;;;;;;4.53;66.91;99062.75;10297954;28;20464;-74
2022/04/04 21:31:06;;;;;;;7.75;6.45;;;;;;;4.69;66.28;99058.50;10285172;28;20059;-74
2022/04/04 21:36:07;;;;;;;7.88;6.63;;;;;;;4.56;67.01;99057.41;10301911;28;20520;-74
2022/04/04 21:41:09;;;;;;;8.65;6.85;;;;;;;4.45;68.13;99047.63;10305774;28;20563;-74
2022/04/04 21:46:11;;;;;;;7.55;6.75;;;;;;;4.33;68.92;99050.75;10309685;28;20077;-74
2022/04/04 21:51:13;;;;;;;8.00;6.78;;;;;;;4.28;69.28;99041.56;10309155;28;20077;-74
2022/04/04 21:56:15;;;;;;;7.47;6.35;;;;;;;4.25;69.13;99039.94;10293752;28;20046;-74
2022/04/04 22:01:17;;;;;;;7.60;6.78;;;;;;;4.38;68.83;99033.28;10309638;28;20054;-74
2022/04/04 22:06:19;;;;;;;8.90;7.15;;;;;;;4.56;68.23;99039.28;10309804;28;20050;-74
2022/04/04 22:11:22;;;;;;;9.07;6.60;;;;;;;4.40;68.75;99036.63;10290964;28;20051;-74
2022/04/04 22:16:24;;;;;;;7.93;6.45;;;;;;;4.49;68.23;99041.38;10311904;28;20162;-74
2022/04/04 22:21:26;;;;;;;7.07;5.57;;;;;;;4.49;68.10;99022.41;10290365;28;20432;-74
2022/04/04 22:26:27;;;;;;;7.32;6.00;;;;;;;4.72;67.12;99028.09;10308632;28;20085;-74
2022/04/04 22:31:29;;;;;;;9.48;5.85;;;;;;;4.74;67.17;99009.06;10308744;28;20477;-75
2022/04/04 22:36:31;;;;;;;7.70;6.47;;;;;;;4.75;66.91;99010.72;10291544;28;20043;-74
2022/04/04 22:41:33;;;;;;;7.35;6.10;;;;;;;4.70;67.10;99019.56;10308381;28;20112;-74
2022/04/04 22:46:35;;;;;;;8.15;6.78;;;;;;;4.88;66.99;99015.22;10308628;28;20137;-75
2022/04/04 22:51:37;;;;;;;8.02;6.32;;;;;;;4.91;66.62;99009.03;10306514;28;20062;-74
2022/04/04 22:56:38;;;;;;;6.60;5.80;;;;;;;4.91;66.91;98994.31;10307009;28;20133;-74
2022/04/04 23:01:40;;;;;;;8.55;5.70;;;;;;;4.78;67.23;99000.22;10307475;28;20054;-74
2022/04/04 23:06:42;;;;;;;8.90;6.95;;;;;;;4.99;66.54;99004.28;10291035;28;20090;-74
2022/04/04 23:11:44;;;;;;;8.18;6.20;;;;;;;4.93;66.88;98989.06;10307075;28;20105;-74
2022/04/04 23:16:45;;;;;;;7.20;6.03;;;;;;;4.81;67.73;98985.34;10307868;28;20136;-74
2022/04/04 23:21:57;;;;;;;8.25;6.82;;;;;;;4.92;67.31;98982.22;10305081;28;20062;-74
2022/04/04 23:26:59;;;;;;;7.22;5.97;;;;;;;4.91;67.37;98972.75;10289775;28;20046;-75
2022/04/04 23:32:01;;;;;;;8.07;6.35;;;;;;;4.84;67.81;98972.22;10306007;28;20188;-74
2022/04/04 23:37:04;;;;;;;7.68;6.13;;;;;;;4.71;68.46;98971.19;10306127;28;20468;-75
2022/04/04 23:42:23;;;;;;;7.77;6.90;;;;;;;4.79;68.43;98970.81;10304686;28;20038;-74
2022/04/04 23:47:24;;;;;;;9.63;7.65;;;;;;;4.78;68.64;98969.16;10305797;28;20145;-74
2022/04/04 23:52:26;;;;;;;9.52;8.30;;;;;;;4.64;69.61;98949.09;10289004;28;20112;-75